Time;durP1;ratioP1;P1;durP2;ratioP2;P2;SDS_P1;SDS_P2;PMS_P1;PMS_P2;Temp;Humidity;BMP_temperature;BMP_pressure;BME280_temperature;BME280_humidity;BME280_pressure;Samples;Min_cycle;Max_cycle;Signal;HPM_P1;HPM_P2
2022/05/06 00:01:30;;;;;;;34.55;11.77;;;9.70;99.90;;;;;;4990595;28;20096;-70
2022/05/06 00:03:55;;;;;;;22.42;13.57;;;9.70;99.90;;;;;;4971117;28;20054;-70
2022/05/06 00:06:21;;;;;;;23.92;13.73;;;9.60;99.90;;;;;;4975663;28;20054;-70
2022/05/06 00:08:47;;;;;;;21.40;12.00;;;9.50;99.90;;;;;;4987632;28;20096;-69
2022/05/06 00:11:13;;;;;;;24.95;12.55;;;9.60;99.90;;;;;;4989323;28;20491;-70
2022/05/06 00:13:39;;;;;;;20.50;13.18;;;9.70;99.90;;;;;;4968550;28;20049;-70
2022/05/06 00:16:05;;;;;;;16.52;11.20;;;9.70;99.90;;;;;;4986688;28;20565;-70
2022/05/06 00:18:31;;;;;;;20.55;12.35;;;9.60;99.90;;;;;;4987396;28;20154;-70
2022/05/06 00:20:57;;;;;;;24.73;14.98;;;9.40;99.90;;;;;;4988304;28;20078;-70
2022/05/06 00:23:23;;;;;;;28.27;12.40;;;9.30;99.90;;;;;;4990697;28;20045;-69
2022/05/06 00:25:50;;;;;;;22.05;13.25;;;9.40;99.90;;;;;;4975610;28;20053;-70
2022/05/06 00:28:15;;;;;;;24.63;14.40;;;9.30;99.90;;;;;;4987703;28;20378;-69
2022/05/06 00:30:41;;;;;;;26.67;12.95;;;9.30;99.90;;;;;;4953572;28;20042;-70
2022/05/06 00:33:09;;;;;;;22.40;12.57;;;9.40;99.90;;;;;;4969771;28;20108;-70
2022/05/06 00:35:36;;;;;;;22.95;11.52;;;9.40;99.90;;;;;;4986524;28;20415;-70
2022/05/06 00:38:03;;;;;;;24.45;14.02;;;9.30;99.90;;;;;;4974997;28;20050;-70
2022/05/06 00:40:29;;;;;;;23.75;11.93;;;9.20;99.90;;;;;;4988609;28;20046;-70
2022/05/06 00:42:56;;;;;;;23.08;12.30;;;9.20;99.90;;;;;;4972836;28;20507;-70
2022/05/06 00:45:23;;;;;;;19.98;11.10;;;9.00;99.90;;;;;;4989005;28;20054;-70
2022/05/06 00:47:49;;;;;;;24.85;12.07;;;8.80;99.90;;;;;;4971725;28;20460;-70
2022/05/06 00:50:16;;;;;;;24.30;13.93;;;8.90;99.90;;;;;;4986165;28;20060;-69
2022/05/06 00:52:42;;;;;;;25.70;15.15;;;9.00;99.90;;;;;;4995958;28;20361;-69
2022/05/06 00:55:09;;;;;;;28.33;14.52;;;8.80;99.90;;;;;;4971979;28;20952;-69
2022/05/06 00:57:36;;;;;;;24.40;14.43;;;8.90;99.90;;;;;;4992437;28;20086;-69
2022/05/06 01:00:19;;;;;;;25.70;12.25;;;8.90;99.90;;;;;;4990695;28;20130;-69
2022/05/06 01:02:48;;;;;;;24.65;14.40;;;8.80;99.90;;;;;;4989929;28;20037;-70
2022/05/06 01:05:15;;;;;;;18.45;10.85;;;8.70;99.90;;;;;;4976777;28;20053;-70
2022/05/06 01:07:43;;;;;;;24.75;12.93;;;8.60;99.90;;;;;;4990921;28;20625;-70
2022/05/06 01:10:09;;;;;;;22.45;12.68;;;8.50;99.90;;;;;;4978819;28;20050;-70
2022/05/06 01:12:35;;;;;;;28.67;12.10;;;8.50;99.90;;;;;;4989723;28;20049;-70
2022/05/06 01:15:01;;;;;;;21.88;13.35;;;8.40;99.90;;;;;;4991372;28;20045;-70
2022/05/06 01:17:26;;;;;;;22.10;12.73;;;8.30;99.90;;;;;;4975394;28;20076;-70
2022/05/06 01:19:52;;;;;;;26.50;14.55;;;8.30;99.90;;;;;;4992449;28;20459;-70
2022/05/06 01:22:18;;;;;;;25.80;12.25;;;8.20;99.90;;;;;;4992743;28;20080;-69
2022/05/06 01:24:44;;;;;;;24.40;13.52;;;8.20;99.90;;;;;;4992626;28;20108;-70
2022/05/06 01:27:23;;;;;;;25.15;13.77;;;8.30;99.90;;;;;;4994514;28;20037;-70
2022/05/06 01:29:51;;;;;;;21.25;12.02;;;8.20;99.90;;;;;;4992891;28;20042;-69
2022/05/06 01:32:18;;;;;;;19.83;11.95;;;8.20;99.90;;;;;;4991285;28;20871;-69
2022/05/06 01:34:46;;;;;;;22.02;10.98;;;8.10;99.90;;;;;;4988721;28;20557;-70
2022/05/06 01:37:15;;;;;;;19.98;11.88;;;8.10;99.90;;;;;;4988803;28;20856;-70
2022/05/06 01:39:42;;;;;;;22.40;13.32;;;8.00;99.90;;;;;;4992817;28;20610;-70
2022/05/06 01:42:12;;;;;;;24.50;13.23;;;8.00;99.90;;;;;;4988852;28;20060;-70
2022/05/06 01:44:41;;;;;;;21.17;12.52;;;7.90;99.90;;;;;;4973769;28;20111;-70
2022/05/06 01:47:23;;;;;;;21.95;11.82;;;7.80;99.90;;;;;;4993158;28;20057;-70
2022/05/06 01:49:54;;;;;;;21.60;10.75;;;7.90;99.90;;;;;;4991125;28;20043;-69
2022/05/06 01:52:20;;;;;;;24.20;11.95;;;8.00;99.90;;;;;;4988943;28;20415;-70
2022/05/06 01:54:47;;;;;;;24.73;13.65;;;7.90;99.90;;;;;;4972751;28;20054;-70
2022/05/06 01:57:13;;;;;;;21.95;12.98;;;8.00;99.90;;;;;;4992980;28;20128;-70
2022/05/06 01:59:39;;;;;;;47.13;13.55;;;8.00;99.90;;;;;;4987929;28;20058;-70
2022/05/06 02:02:04;;;;;;;30.02;13.20;;;8.00;99.90;;;;;;4974727;28;21264;-70
2022/05/06 02:07:15;;;;;;;22.00;10.05;;;7.80;99.90;;;;;;4991382;28;20169;-70
2022/05/06 02:09:40;;;;;;;23.38;12.25;;;7.70;99.90;;;;;;4958678;28;20939;-70
2022/05/06 02:12:07;;;;;;;20.30;10.70;;;7.70;99.90;;;;;;4991520;28;20050;-70
2022/05/06 02:14:33;;;;;;;20.02;10.52;;;7.70;99.90;;;;;;4969031;28;20609;-70
2022/05/06 02:16:59;;;;;;;21.40;10.25;;;7.70;99.90;;;;;;4983802;28;20077;-70
2022/05/06 02:19:25;;;;;;;17.00;9.48;;;7.60;99.90;;;;;;4987948;28;20137;-70
2022/05/06 02:21:51;;;;;;;22.95;12.38;;;7.60;99.90;;;;;;4992381;28;20632;-70
2022/05/06 02:24:17;;;;;;;33.78;14.63;;;7.70;99.90;;;;;;4992413;28;20055;-70
2022/05/06 02:26:43;;;;;;;27.60;16.30;;;7.60;99.90;;;;;;4986726;28;20077;-70
2022/05/06 02:29:08;;;;;;;24.50;14.38;;;7.60;99.90;;;;;;4992139;28;20053;-70
2022/05/06 02:34:20;;;;;;;19.00;10.85;;;7.60;99.90;;;;;;4987225;28;20419;-70
2022/05/06 02:36:46;;;;;;;14.13;7.00;;;7.60;99.90;;;;;;4972494;28;20054;-70
2022/05/06 02:39:12;;;;;;;48.80;8.43;;;7.50;99.90;;;;;;4988585;28;20133;-70
2022/05/06 02:41:38;;;;;;;10.85;5.40;;;7.60;99.90;;;;;;4989161;28;20042;-69
2022/05/06 02:44:04;;;;;;;21.08;9.05;;;7.50;99.90;;;;;;4991126;28;20295;-70
2022/05/06 02:46:34;;;;;;;23.88;13.98;;;7.50;99.90;;;;;;4990477;28;20451;-70
2022/05/06 02:49:01;;;;;;;24.95;14.93;;;7.50;99.90;;;;;;4987129;28;20077;-70
2022/05/06 02:51:30;;;;;;;23.65;14.43;;;7.40;99.90;;;;;;4987980;28;20801;-70
2022/05/06 02:53:57;;;;;;;25.33;13.32;;;7.40;99.90;;;;;;4990960;28;20555;-70
2022/05/06 02:56:23;;;;;;;24.58;14.85;;;7.50;99.90;;;;;;4986772;28;20172;-70
2022/05/06 02:58:49;;;;;;;28.25;13.18;;;7.40;99.90;;;;;;4972118;28;20050;-70
2022/05/06 03:01:15;;;;;;;23.90;13.27;;;7.40;99.90;;;;;;4992405;28;20057;-71
2022/05/06 03:03:41;;;;;;;20.77;11.57;;;7.30;99.90;;;;;;4991879;28;20638;-71
2022/05/06 03:06:07;;;;;;;24.25;13.30;;;7.20;99.90;;;;;;4972480;28;20145;-71
2022/05/06 03:08:32;;;;;;;26.17;15.43;;;7.20;99.90;;;;;;4991401;28;20071;-71
2022/05/06 03:11:02;;;;;;;23.15;13.63;;;7.20;99.90;;;;;;4991029;28;20176;-71
2022/05/06 03:13:28;;;;;;;28.35;13.70;;;7.10;99.90;;;;;;4990409;28;20046;-71
2022/05/06 03:15:54;;;;;;;20.00;10.32;;;7.10;99.90;;;;;;4988821;28;20706;-70
2022/05/06 03:18:20;;;;;;;17.45;9.93;;;7.10;99.90;;;;;;4991041;28;20100;-71
2022/05/06 03:20:45;;;;;;;28.75;5.90;;;7.00;99.90;;;;;;4989471;28;20103;-70
2022/05/06 03:23:15;;;;;;;30.08;8.27;;;7.00;99.90;;;;;;4992605;28;20050;-70
2022/05/06 03:25:41;;;;;;;19.38;10.13;;;7.00;99.90;;;;;;4991945;28;20499;-70
2022/05/06 03:28:07;;;;;;;49.03;9.65;;;7.00;99.90;;;;;;4989902;28;20052;-70
2022/05/06 03:30:40;;;;;;;35.00;11.82;;;6.90;99.90;;;;;;4990274;28;20045;-70
2022/05/06 03:33:09;;;;;;;36.90;15.48;;;6.80;99.90;;;;;;4991009;28;20593;-70
2022/05/06 03:35:37;;;;;;;29.08;14.57;;;6.80;99.90;;;;;;4989183;28;20057;-70
2022/05/06 03:38:04;;;;;;;56.67;17.35;;;6.80;99.90;;;;;;4989938;28;20157;-70
2022/05/06 03:40:30;;;;;;;32.03;13.27;;;6.80;99.90;;;;;;4987434;28;20050;-70
2022/05/06 03:42:55;;;;;;;24.38;14.25;;;6.70;99.90;;;;;;4988064;28;20057;-70
2022/05/06 03:45:21;;;;;;;37.42;12.95;;;6.60;99.90;;;;;;4989012;28;20041;-70
2022/05/06 03:47:47;;;;;;;32.08;11.48;;;6.70;99.90;;;;;;4989586;28;20482;-69
2022/05/06 03:52:58;;;;;;;25.85;15.10;;;6.90;99.90;;;;;;4987114;28;20139;-71
2022/05/06 03:55:25;;;;;;;29.77;14.52;;;6.90;99.90;;;;;;4968656;28;20054;-70
2022/05/06 03:57:50;;;;;;;44.13;12.90;;;6.90;99.90;;;;;;4988730;28;20699;-71
2022/05/06 04:00:19;;;;;;;46.50;13.18;;;6.90;99.90;;;;;;4991245;28;20107;-69
2022/05/06 04:02:44;;;;;;;32.58;11.60;;;6.90;99.90;;;;;;4987447;28;20058;-69
2022/05/06 04:05:10;;;;;;;26.98;10.70;;;6.80;99.90;;;;;;4985948;28;20100;-70
2022/05/06 04:07:36;;;;;;;32.83;12.18;;;6.90;99.90;;;;;;4973344;28;20062;-71
2022/05/06 04:10:02;;;;;;;37.10;12.70;;;6.90;99.90;;;;;;4983368;28;20855;-70
2022/05/06 04:12:28;;;;;;;27.90;13.15;;;7.00;99.90;;;;;;4991483;28;20598;-70
2022/05/06 04:14:54;;;;;;;32.53;14.32;;;7.00;99.90;;;;;;4968652;28;20045;-70
2022/05/06 04:17:20;;;;;;;21.58;10.43;;;7.00;99.90;;;;;;4991348;28;21131;-70
2022/05/06 04:25:20;;;;;;;43.85;12.85;;;7.00;99.90;;;;;;4989382;28;20062;-70
2022/05/06 04:27:46;;;;;;;27.92;12.85;;;7.10;99.90;;;;;;4994400;28;20042;-71
2022/05/06 04:30:12;;;;;;;37.88;11.52;;;7.10;99.90;;;;;;4987699;28;20605;-70
2022/05/06 04:32:38;;;;;;;22.90;10.02;;;7.20;99.90;;;;;;4987870;28;20038;-71
2022/05/06 04:35:06;;;;;;;21.85;9.45;;;7.20;99.90;;;;;;4968217;28;20185;-71
2022/05/06 04:37:35;;;;;;;25.08;9.60;;;7.30;99.90;;;;;;4969202;28;20053;-70
2022/05/06 04:40:01;;;;;;;39.67;10.48;;;7.30;99.90;;;;;;4986222;28;20072;-70
2022/05/06 04:42:27;;;;;;;17.75;8.02;;;7.40;99.90;;;;;;4987164;28;20315;-70
2022/05/06 04:44:53;;;;;;;22.85;7.97;;;7.40;99.90;;;;;;4969758;28;20072;-70
2022/05/06 04:47:19;;;;;;;24.75;8.93;;;7.60;99.90;;;;;;4988026;28;20780;-70
2022/05/06 04:49:45;;;;;;;27.92;11.23;;;8.20;99.90;;;;;;4968058;28;20789;-70
2022/05/06 04:52:10;;;;;;;30.02;12.50;;;8.40;99.90;;;;;;4974941;28;20212;-71
2022/05/06 04:54:36;;;;;;;31.38;12.40;;;8.90;99.90;;;;;;4968795;28;20395;-71
2022/05/06 04:57:02;;;;;;;20.40;11.63;;;8.80;99.90;;;;;;4968622;28;20507;-71
2022/05/06 04:59:28;;;;;;;26.88;13.05;;;9.00;99.90;;;;;;4970965;28;20104;-70
2022/05/06 05:01:54;;;;;;;33.30;13.00;;;9.20;99.90;;;;;;4989345;28;20046;-70
2022/05/06 05:04:19;;;;;;;33.25;14.77;;;10.40;99.90;;;;;;4987222;28;20049;-71
2022/05/06 05:06:45;;;;;;;30.83;14.70;;;11.40;99.90;;;;;;4987559;28;20045;-71
2022/05/06 05:09:11;;;;;;;42.03;18.15;;;12.00;99.90;;;;;;4987431;28;21946;-71
2022/05/06 05:11:37;;;;;;;32.67;19.98;;;11.70;99.90;;;;;;4989960;28;20099;-71
2022/05/06 05:14:06;;;;;;;45.33;20.83;;;11.40;99.90;;;;;;4976219;28;20085;-71
2022/05/06 05:16:33;;;;;;;45.33;20.38;;;11.50;99.90;;;;;;4992153;28;20053;-71
2022/05/06 05:18:59;;;;;;;45.35;20.63;;;11.80;99.90;;;;;;4989701;28;20144;-71
2022/05/06 05:21:25;;;;;;;52.63;20.77;;;12.30;99.90;;;;;;4989470;28;20103;-71
2022/05/06 05:23:50;;;;;;;52.47;20.60;;;13.30;99.90;;;;;;4991121;28;20060;-71
2022/05/06 05:26:16;;;;;;;67.22;20.95;;;14.40;99.90;;;;;;4992071;28;20050;-71
2022/05/06 05:28:42;;;;;;;52.38;19.88;;;15.00;99.90;;;;;;4990184;28;20199;-71
2022/05/06 05:31:08;;;;;;;44.63;21.42;;;15.00;99.90;;;;;;4984099;28;20046;-71
2022/05/06 05:33:34;;;;;;;68.18;21.90;;;15.80;99.90;;;;;;4992666;28;20609;-71
2022/05/06 05:36:00;;;;;;;95.38;23.48;;;16.30;99.90;;;;;;4986411;28;20415;-72
2022/05/06 05:38:25;;;;;;;79.65;22.40;;;16.30;99.90;;;;;;4989971;28;20964;-71
2022/05/06 05:40:51;;;;;;;48.05;19.63;;;16.20;99.90;;;;;;4991706;28;20941;-71
2022/05/06 05:48:45;;;;;;;51.63;19.67;;;14.40;99.90;;;;;;4992795;28;19960;-71
2022/05/06 05:51:11;;;;;;;48.45;21.02;;;14.00;99.90;;;;;;4972636;28;20462;-71
2022/05/06 05:53:38;;;;;;;66.72;21.70;;;13.80;99.90;;;;;;4987981;28;20057;-71
2022/05/06 05:56:04;;;;;;;48.22;20.35;;;13.60;99.90;;;;;;4989475;28;20050;-71
2022/05/06 05:58:31;;;;;;;67.82;22.05;;;13.20;99.90;;;;;;4991973;28;20046;-71
2022/05/06 06:00:57;;;;;;;47.35;19.80;;;13.10;99.90;;;;;;4992307;28;20053;-71
2022/05/06 06:03:23;;;;;;;61.58;22.02;;;13.10;99.90;;;;;;4971351;28;20057;-71
2022/05/06 06:05:49;;;;;;;30.90;18.65;;;13.40;99.90;;;;;;4991299;28;20052;-71
2022/05/06 06:08:14;;;;;;;39.63;17.95;;;13.80;99.90;;;;;;4973141;28;20049;-71
2022/05/06 06:10:40;;;;;;;37.92;19.60;;;13.80;99.90;;;;;;4991354;28;20046;-71
2022/05/06 06:13:06;;;;;;;33.88;18.63;;;14.10;99.90;;;;;;4988446;28;20069;-71
2022/05/06 06:15:32;;;;;;;34.15;16.92;;;14.50;99.90;;;;;;4993141;28;20037;-71
2022/05/06 06:17:58;;;;;;;32.25;19.42;;;14.70;99.90;;;;;;4992654;28;20811;-71
2022/05/06 06:20:24;;;;;;;37.78;18.63;;;14.90;99.90;;;;;;4974343;28;20050;-71
2022/05/06 06:22:50;;;;;;;31.30;16.83;;;15.20;99.90;;;;;;4989903;28;21046;-71
2022/05/06 06:25:16;;;;;;;31.23;20.05;;;15.20;99.90;;;;;;4976335;28;20090;-71
2022/05/06 06:27:43;;;;;;;41.80;21.67;;;15.40;99.90;;;;;;4971655;28;20132;-71
2022/05/06 06:30:10;;;;;;;29.90;17.42;;;15.60;99.90;;;;;;4974386;28;20049;-71
2022/05/06 06:32:36;;;;;;;29.77;18.92;;;15.40;99.90;;;;;;4953031;28;20054;-72
2022/05/06 06:35:03;;;;;;;35.17;19.60;;;15.60;99.90;;;;;;4958392;28;20050;-71
2022/05/06 06:37:31;;;;;;;34.08;20.75;;;16.10;99.90;;;;;;4972991;28;20551;-70
2022/05/06 06:39:57;;;;;;;34.92;19.77;;;16.20;99.90;;;;;;4973527;28;20042;-71
2022/05/06 06:42:23;;;;;;;35.85;21.13;;;16.10;99.90;;;;;;4973423;28;20074;-71
2022/05/06 06:44:49;;;;;;;28.15;19.70;;;16.40;99.90;;;;;;4972738;28;20582;-70
2022/05/06 06:47:15;;;;;;;44.15;20.33;;;16.30;99.90;;;;;;4969353;28;20185;-71
2022/05/06 06:49:41;;;;;;;31.20;20.45;;;16.90;99.90;;;;;;4972031;28;20403;-71
2022/05/06 06:52:07;;;;;;;32.30;19.75;;;16.80;99.90;;;;;;4968088;28;20413;-71
2022/05/06 06:54:33;;;;;;;49.05;21.83;;;16.80;99.90;;;;;;4972201;28;20046;-71
2022/05/06 06:56:59;;;;;;;34.03;22.45;;;17.00;99.90;;;;;;4970422;28;20038;-71
2022/05/06 06:59:25;;;;;;;34.50;23.40;;;17.00;99.90;;;;;;4975626;28;20091;-71
2022/05/06 07:01:51;;;;;;;41.45;25.17;;;16.90;99.90;;;;;;4969381;28;20048;-72
2022/05/06 07:04:17;;;;;;;39.50;24.13;;;17.20;99.90;;;;;;4974724;28;20107;-71
2022/05/06 07:12:11;;;;;;;34.10;23.30;;;17.50;99.90;;;;;;4968373;28;20101;-71
2022/05/06 07:14:37;;;;;;;42.30;23.35;;;17.60;99.90;;;;;;4966074;28;20046;-71
2022/05/06 07:17:05;;;;;;;38.20;24.58;;;17.80;99.90;;;;;;4972404;28;20042;-71
2022/05/06 07:19:33;;;;;;;35.25;23.25;;;17.70;99.90;;;;;;4969173;28;20863;-71
2022/05/06 07:21:58;;;;;;;33.20;22.77;;;17.70;99.90;;;;;;4952062;28;20129;-71
2022/05/06 07:24:25;;;;;;;49.65;27.80;;;17.60;99.90;;;;;;4978699;28;20068;-71
2022/05/06 07:26:53;;;;;;;34.45;24.75;;;17.50;99.90;;;;;;4990668;28;20635;-71
2022/05/06 07:29:19;;;;;;;34.17;24.20;;;17.90;99.90;;;;;;4988681;28;20615;-71
2022/05/06 07:31:46;;;;;;;35.35;23.58;;;18.00;99.90;;;;;;4991239;28;20050;-71
2022/05/06 07:34:12;;;;;;;34.00;25.75;;;18.10;99.90;;;;;;4990587;28;20041;-71
2022/05/06 07:36:42;;;;;;;32.40;24.70;;;18.10;99.90;;;;;;4972075;28;20057;-71
2022/05/06 07:39:09;;;;;;;33.58;25.25;;;18.30;99.90;;;;;;4987956;28;20045;-71
2022/05/06 07:41:35;;;;;;;30.80;22.75;;;18.30;99.90;;;;;;4986734;28;20050;-71
2022/05/06 07:44:01;;;;;;;31.55;24.27;;;18.50;99.90;;;;;;4989553;28;20752;-71
2022/05/06 07:46:26;;;;;;;33.25;23.20;;;18.30;99.90;;;;;;4989924;28;20491;-71
2022/05/06 07:48:52;;;;;;;32.42;22.55;;;18.00;99.90;;;;;;4990498;28;20037;-71
2022/05/06 07:51:18;;;;;;;31.25;22.83;;;17.80;99.90;;;;;;4988171;28;20610;-72
2022/05/06 07:53:44;;;;;;;26.23;18.98;;;18.20;99.90;;;;;;4988303;28;20148;-71
2022/05/06 07:56:10;;;;;;;25.98;19.95;;;18.40;99.90;;;;;;4986047;28;20049;-71
2022/05/06 07:58:38;;;;;;;27.00;20.20;;;18.40;99.90;;;;;;4984435;28;20042;-71
2022/05/06 08:01:05;;;;;;;23.50;18.80;;;18.50;99.90;;;;;;4989114;28;20038;-71
2022/05/06 08:06:15;;;;;;;24.77;18.90;;;18.40;99.90;;;;;;4980479;28;20050;-71
2022/05/06 08:08:41;;;;;;;27.13;20.10;;;18.20;99.90;;;;;;4980084;28;20458;-71
2022/05/06 08:11:07;;;;;;;24.10;18.95;;;18.40;99.90;;;;;;4961445;28;20107;-71
2022/05/06 08:13:33;;;;;;;25.75;19.48;;;18.10;99.90;;;;;;4984998;28;20038;-71
2022/05/06 08:15:59;;;;;;;25.67;20.58;;;18.20;99.90;;;;;;4990664;28;20806;-71
2022/05/06 08:18:25;;;;;;;25.45;20.67;;;18.20;99.90;;;;;;4969582;28;20061;-71
2022/05/06 08:20:52;;;;;;;29.13;20.77;;;18.30;99.90;;;;;;4990482;28;20137;-71
2022/05/06 08:23:19;;;;;;;28.67;21.55;;;18.10;99.90;;;;;;4981968;28;20046;-71
2022/05/06 08:25:47;;;;;;;30.55;22.55;;;18.30;99.90;;;;;;4990967;28;20073;-71
2022/05/06 08:28:13;;;;;;;27.02;21.67;;;18.10;99.90;;;;;;4987575;28;20149;-71
2022/05/06 08:30:40;;;;;;;26.60;21.63;;;18.00;99.90;;;;;;4987545;28;20053;-71
2022/05/06 08:33:06;;;;;;;25.50;20.05;;;17.90;99.90;;;;;;4984981;28;20034;-71
2022/05/06 08:35:32;;;;;;;25.23;21.27;;;18.10;99.90;;;;;;4988467;28;20069;-71
2022/05/06 08:37:58;;;;;;;25.65;20.10;;;18.20;99.90;;;;;;4986557;28;20621;-69
2022/05/06 08:40:31;;;;;;;25.65;20.02;;;18.10;99.90;;;;;;4988797;28;20041;-71
2022/05/06 08:42:57;;;;;;;26.55;22.23;;;18.20;99.90;;;;;;4991234;28;20096;-71
2022/05/06 08:50:57;;;;;;;56.85;22.30;;;18.40;99.90;;;;;;4994493;28;20049;-71
2022/05/06 08:53:50;;;;;;;25.63;19.60;;;18.60;99.90;;;;;;4990709;28;20046;-71
2022/05/06 08:56:16;;;;;;;25.08;18.70;;;18.40;99.90;;;;;;4968423;28;20816;-71
2022/05/06 08:58:42;;;;;;;30.15;20.63;;;18.60;99.90;;;;;;4986611;28;20053;-71
2022/05/06 09:01:14;;;;;;;26.88;18.73;;;18.70;99.90;;;;;;4985396;28;20049;-71
2022/05/06 09:03:41;;;;;;;28.10;20.63;;;18.60;99.90;;;;;;4986644;28;20050;-72
2022/05/06 09:06:18;;;;;;;26.10;19.00;;;19.00;99.90;;;;;;4986353;28;20103;-71
2022/05/06 09:08:44;;;;;;;27.73;20.23;;;18.80;99.90;;;;;;4984091;28;20078;-71
2022/05/06 09:11:11;;;;;;;25.48;18.27;;;18.90;99.90;;;;;;4987398;28;20064;-71
2022/05/06 09:13:38;;;;;;;22.48;17.08;;;19.20;99.90;;;;;;4993515;28;20486;-71
2022/05/06 09:16:44;;;;;;;24.00;17.38;;;19.20;99.90;;;;;;4993148;28;20977;-70
2022/05/06 09:19:20;;;;;;;23.70;17.15;;;19.60;99.90;;;;;;4995822;28;20076;-71
2022/05/06 09:22:14;;;;;;;26.58;18.98;;;19.80;99.90;;;;;;4992577;28;20042;-71
2022/05/06 09:24:41;;;;;;;;;;;19.70;99.90;;;;;;4989527;28;20050;-70
2022/05/06 09:27:13;;;;;;;22.63;17.38;;;19.70;99.90;;;;;;4993147;28;20437;-70
2022/05/06 09:29:44;;;;;;;24.60;16.65;;;19.90;99.90;;;;;;4989019;28;20077;-70
2022/05/06 09:32:20;;;;;;;24.05;19.20;;;20.00;99.90;;;;;;4989469;28;20042;-70
2022/05/06 09:34:52;;;;;;;21.25;17.13;;;20.10;99.90;;;;;;4992990;28;20042;-71
2022/05/06 09:37:41;;;;;;;20.83;17.05;;;20.10;99.90;;;;;;4988874;28;20136;-70
2022/05/06 09:40:14;;;;;;;22.23;16.77;;;20.20;99.90;;;;;;4986977;28;20046;-71
2022/05/06 09:42:45;;;;;;;21.17;16.25;;;20.40;99.90;;;;;;4988798;28;20050;-71
2022/05/06 09:45:13;;;;;;;22.38;16.77;;;20.50;99.90;;;;;;4991444;28;20046;-71
2022/05/06 09:47:40;;;;;;;21.65;17.17;;;21.00;99.90;;;;;;4989360;28;20068;-71
2022/05/06 09:50:08;;;;;;;21.40;16.58;;;20.70;99.90;;;;;;4970585;28;20114;-71
2022/05/06 09:52:34;;;;;;;23.08;16.85;;;20.80;99.90;;;;;;4992015;28;20046;-71
2022/05/06 09:55:01;;;;;;;28.33;16.25;;;20.80;99.90;;;;;;4994781;28;20053;-71
2022/05/06 09:57:29;;;;;;;29.83;16.23;;;21.00;99.90;;;;;;4990379;28;20060;-71
2022/05/06 09:59:54;;;;;;;21.40;14.88;;;21.40;99.90;;;;;;4992134;28;20160;-72
2022/05/06 10:02:20;;;;;;;19.83;12.95;;;21.30;99.90;;;;;;4972989;28;20843;-71
2022/05/06 10:04:49;;;;;;;20.35;13.75;;;21.50;99.90;;;;;;4989507;28;20053;-71
2022/05/06 10:07:17;;;;;;;17.30;11.23;;;21.30;99.90;;;;;;4987594;28;20081;-71
2022/05/06 10:10:01;;;;;;;17.15;12.30;;;21.30;99.90;;;;;;4989775;28;20049;-71
2022/05/06 10:12:35;;;;;;;19.15;12.77;;;21.70;99.90;;;;;;4992498;28;20045;-71
2022/05/06 10:15:03;;;;;;;19.30;13.00;;;21.80;99.90;;;;;;4987816;28;20100;-71
2022/05/06 10:17:49;;;;;;;14.90;11.25;;;22.00;99.90;;;;;;4986217;28;20045;-71
2022/05/06 10:20:46;;;;;;;15.63;10.90;;;22.00;99.90;;;;;;4988784;28;20088;-71
2022/05/06 10:23:15;;;;;;;16.73;12.30;;;21.70;99.90;;;;;;4982740;28;20081;-71
2022/05/06 10:25:45;;;;;;;17.23;11.95;;;22.00;99.90;;;;;;4993471;28;20054;-71
2022/05/06 10:34:10;;;;;;;14.43;10.77;;;22.40;99.90;;;;;;4991402;28;20045;-71
2022/05/06 10:36:47;;;;;;;17.73;11.35;;;22.00;99.90;;;;;;4990899;28;20517;-71
2022/05/06 10:39:45;;;;;;;19.30;11.60;;;22.40;99.90;;;;;;4990863;28;20053;-71
2022/05/06 10:42:18;;;;;;;16.42;11.88;;;22.40;99.90;;;;;;4975112;28;20101;-71
2022/05/06 10:44:46;;;;;;;21.27;11.27;;;22.40;99.90;;;;;;4988908;28;20397;-71
2022/05/06 10:47:11;;;;;;;17.52;10.40;;;22.60;99.90;;;;;;4987325;28;20053;-72
2022/05/06 10:49:40;;;;;;;16.73;9.98;;;22.70;99.90;;;;;;4989163;28;20049;-72
2022/05/06 10:54:54;;;;;;;11.38;8.65;;;22.50;97.40;;;;;;4988244;28;20866;-71
2022/05/06 10:57:25;;;;;;;11.50;8.77;;;22.80;99.90;;;;;;4989683;28;21084;-71
2022/05/06 10:59:51;;;;;;;20.05;9.95;;;22.80;99.90;;;;;;4972141;28;20057;-71
2022/05/06 11:02:21;;;;;;;13.93;9.10;;;22.60;99.90;;;;;;4972168;28;20081;-71
2022/05/06 11:04:54;;;;;;;11.32;8.32;;;22.70;99.90;;;;;;4989167;28;20038;-71
2022/05/06 11:07:21;;;;;;;7.63;5.45;;;22.90;99.90;;;;;;4993155;28;20112;-71
2022/05/06 11:09:47;;;;;;;8.32;6.05;;;22.50;97.70;;;;;;4973499;28;20136;-71
2022/05/06 11:12:37;;;;;;;10.27;6.00;;;22.50;97.80;;;;;;4985672;28;20053;-71
2022/05/06 11:15:13;;;;;;;16.77;6.15;;;23.10;99.10;;;;;;4974561;28;20145;-71
2022/05/06 11:17:40;;;;;;;10.30;4.80;;;23.00;98.80;;;;;;4967411;28;20045;-72
2022/05/06 11:20:23;;;;;;;9.32;4.53;;;22.90;99.90;;;;;;4988147;28;20052;-72
2022/05/06 11:22:50;;;;;;;13.40;5.40;;;23.00;88.50;;;;;;4993373;28;20174;-72
2022/05/06 11:25:16;;;;;;;10.73;5.38;;;23.20;94.60;;;;;;4968683;28;20097;-71
2022/05/06 11:27:42;;;;;;;7.20;4.70;;;23.20;93.40;;;;;;4988894;28;20120;-72
2022/05/06 11:30:09;;;;;;;6.90;4.72;;;23.00;86.60;;;;;;4990054;28;21012;-72
2022/05/06 11:32:35;;;;;;;16.23;4.70;;;23.00;91.50;;;;;;4986892;28;20045;-72
2022/05/06 11:35:09;;;;;;;22.60;4.90;;;23.00;92.60;;;;;;4989840;28;20513;-72
2022/05/06 11:37:40;;;;;;;7.20;4.18;;;23.30;90.80;;;;;;4987986;28;20533;-72
2022/05/06 11:40:32;;;;;;;6.43;4.13;;;23.50;93.90;;;;;;4988923;28;20068;-71
2022/05/06 11:43:03;;;;;;;8.35;3.50;;;23.40;92.60;;;;;;4988325;28;20117;-72
2022/05/06 11:48:16;;;;;;;9.82;4.28;;;23.00;82.20;;;;;;4989230;28;20053;-71
2022/05/06 11:50:43;;;;;;;7.82;3.28;;;23.00;84.80;;;;;;4972548;28;20103;-72
2022/05/06 11:53:11;;;;;;;13.20;3.88;;;22.90;78.40;;;;;;4986787;28;20048;-73
2022/05/06 11:55:39;;;;;;;10.77;4.07;;;22.80;77.50;;;;;;4992558;28;20043;-72
2022/05/06 11:58:06;;;;;;;11.00;4.50;;;23.40;82.70;;;;;;4986552;28;20304;-72
2022/05/06 12:00:33;;;;;;;9.18;4.43;;;23.50;87.30;;;;;;4992606;28;20085;-72
2022/05/06 12:03:05;;;;;;;7.43;4.40;;;23.90;90.80;;;;;;4990837;28;20728;-72
2022/05/06 12:05:34;;;;;;;6.00;4.25;;;23.50;78.50;;;;;;4972883;28;20053;-72
2022/05/06 12:08:00;;;;;;;9.23;5.72;;;23.80;79.00;;;;;;4993082;28;20506;-73
2022/05/06 12:10:27;;;;;;;9.27;5.70;;;23.90;90.10;;;;;;4989734;28;20060;-73
2022/05/06 12:13:04;;;;;;;8.80;5.60;;;24.30;92.60;;;;;;4987041;28;20041;-72
2022/05/06 12:15:38;;;;;;;8.82;5.50;;;23.90;88.00;;;;;;4988049;28;20054;-72
2022/05/06 12:18:11;;;;;;;8.63;4.50;;;24.00;85.10;;;;;;4987680;28;20104;-72
2022/05/06 12:20:40;;;;;;;9.80;4.43;;;23.90;85.20;;;;;;4985473;28;20567;-72
2022/05/06 12:23:08;;;;;;;5.72;3.88;;;23.30;80.90;;;;;;4971232;28;20045;-71
2022/05/06 12:25:41;;;;;;;8.98;4.70;;;23.00;75.40;;;;;;4986240;28;20061;-71
2022/05/06 12:28:18;;;;;;;8.07;5.00;;;23.70;85.80;;;;;;4987226;28;20068;-71
2022/05/06 12:30:46;;;;;;;8.60;5.05;;;23.60;85.00;;;;;;4986146;28;20053;-72
2022/05/06 12:33:17;;;;;;;9.32;4.97;;;23.60;86.90;;;;;;4984212;28;20501;-71
2022/05/06 12:36:05;;;;;;;9.65;4.68;;;23.90;75.40;;;;;;4971450;28;20487;-71
2022/05/06 12:38:39;;;;;;;8.43;4.45;;;23.90;77.10;;;;;;4984487;28;20056;-72
2022/05/06 12:41:21;;;;;;;7.60;2.70;;;24.00;76.40;;;;;;4987071;28;20042;-71
2022/05/06 12:43:48;;;;;;;17.65;3.50;;;23.90;72.90;;;;;;4986304;28;20049;-71
2022/05/06 12:46:44;;;;;;;5.72;2.60;;;23.70;69.80;;;;;;4986072;28;20053;-72
2022/05/06 12:51:54;;;;;;;4.03;2.50;;;23.90;67.00;;;;;;4986932;28;20056;-71
2022/05/06 12:54:22;;;;;;;5.15;2.80;;;23.60;67.60;;;;;;4985828;28;20500;-71
2022/05/06 12:56:48;;;;;;;6.60;4.20;;;23.80;70.00;;;;;;4995945;28;20466;-72
2022/05/06 12:59:14;;;;;;;7.97;4.20;;;23.70;69.70;;;;;;4969690;28;20058;-72
2022/05/06 13:01:40;;;;;;;7.43;4.68;;;23.90;70.90;;;;;;4989202;28;20065;-72
2022/05/06 13:04:06;;;;;;;8.30;5.13;;;24.00;72.40;;;;;;4989289;28;20038;-71
2022/05/06 13:06:32;;;;;;;8.05;4.93;;;24.00;69.90;;;;;;4984816;28;20573;-72
2022/05/06 13:08:59;;;;;;;8.48;5.47;;;24.10;72.20;;;;;;4985162;28;20057;-72
2022/05/06 13:11:25;;;;;;;9.00;5.75;;;24.20;67.70;;;;;;4986103;28;20940;-71
2022/05/06 13:13:52;;;;;;;20.00;6.40;;;24.00;69.90;;;;;;4985473;28;20042;-71
2022/05/06 13:16:18;;;;;;;14.52;4.90;;;24.10;69.10;;;;;;4969189;28;20061;-71
2022/05/06 13:18:44;;;;;;;10.20;3.88;;;24.00;63.50;;;;;;4968570;28;20104;-71
2022/05/06 13:21:10;;;;;;;21.98;3.50;;;24.00;65.30;;;;;;4988113;28;20042;-72
2022/05/06 13:23:37;;;;;;;15.65;3.15;;;24.00;65.00;;;;;;4987963;28;20041;-71
2022/05/06 13:26:03;;;;;;;5.25;2.00;;;24.00;64.10;;;;;;4984834;28;20088;-71
2022/05/06 13:28:30;;;;;;;9.15;2.25;;;23.80;61.20;;;;;;4986333;28;20586;-72